Voorst, Netherlands
Current Conditions -  °F | °C
As of 8:55 PM on Monday 22 Dec 2014 (Local Time) from EHDL Reporting Station
Light Rain Light Rain  
Wind Chill: 50°   Ceiling: 1200
Heat Index: 50°   Visibility: 6mi
Dew Point: 48°   Wind: 18mph
Humidity: 94%   Direction: 240°WSW
Pressure: 29.97"   Gusts: 31mph
Location:  52.17°N, 6.14°E
Report Text: EHDL 221955Z AUTO 24016G27KT 9999 -RADZ SCT010 BKN012 OVC01510/09 Q1015 RERA REDZGRN
Loading
Personal Weather Stations






























Interactive Weather Map New forecast layout! Learn more

10-Day Weather Forecast

Advertisements
Track Severe Weather on mobile